createdAt,value
2023-03-23T00:01:05.724Z,94348.00
2023-03-23T00:05:05.668Z,94348.00
2023-03-23T00:09:05.650Z,94348.00
2023-03-23T00:13:05.598Z,94352.00
2023-03-23T00:17:06.058Z,94350.00
2023-03-23T00:21:05.825Z,94348.00
2023-03-23T00:25:06.090Z,94346.00
2023-03-23T00:29:06.247Z,94346.00
2023-03-23T00:33:06.423Z,94342.00
2023-03-23T00:37:06.601Z,94338.00
2023-03-23T00:41:06.815Z,94338.00
2023-03-23T00:45:06.959Z,94340.00
2023-03-23T00:49:07.194Z,94336.00
2023-03-23T00:53:07.368Z,94334.00
2023-03-23T00:57:07.489Z,94331.00
2023-03-23T01:01:07.672Z,94329.00
2023-03-23T01:05:07.786Z,94331.00
2023-03-23T01:09:08.080Z,94334.00
2023-03-23T01:13:08.131Z,94329.00
2023-03-23T01:17:08.264Z,94329.00
2023-03-23T01:21:08.412Z,94331.00
2023-03-23T01:25:08.615Z,94329.00
2023-03-23T01:29:08.803Z,94325.00
2023-03-23T01:33:08.867Z,94325.00
2023-03-23T01:37:09.014Z,94321.00
2023-03-23T01:41:09.184Z,94323.00
2023-03-23T01:45:09.599Z,94325.00
2023-03-23T01:49:09.416Z,94325.00
2023-03-23T01:53:10.125Z,94319.00
2023-03-23T01:57:09.673Z,94311.00
2023-03-23T02:01:09.800Z,94307.00
2023-03-23T02:05:09.935Z,94305.00
2023-03-23T02:09:10.387Z,94303.00
2023-03-23T02:13:12.350Z,94309.00
2023-03-23T02:17:10.145Z,94311.00
2023-03-23T02:21:10.070Z,94307.00
2023-03-23T02:25:10.039Z,94311.00
2023-03-23T02:29:10.024Z,94307.00
2023-03-23T02:33:10.054Z,94311.00
2023-03-23T02:37:10.032Z,94307.00
2023-03-23T02:41:09.934Z,94309.00
2023-03-23T02:45:09.868Z,94311.00
2023-03-23T02:49:10.556Z,94311.00
2023-03-23T02:53:09.821Z,94311.00
2023-03-23T02:57:09.762Z,94307.00
2023-03-23T03:01:10.110Z,94307.00
2023-03-23T03:05:09.959Z,94303.00
2023-03-23T03:09:09.628Z,94307.00
2023-03-23T03:13:09.614Z,94309.00
2023-03-23T03:17:09.581Z,94313.00
2023-03-23T03:21:10.581Z,94313.00
2023-03-23T03:25:17.798Z,94317.00
2023-03-23T03:29:10.630Z,94319.00
2023-03-23T03:33:10.592Z,94323.00
2023-03-23T03:37:09.607Z,94323.00
2023-03-23T03:41:09.509Z,94332.00
2023-03-23T03:45:09.689Z,94338.00
2023-03-23T03:49:09.585Z,94338.00
2023-03-23T03:53:09.532Z,94342.00
2023-03-23T03:57:09.568Z,94340.00
2023-03-23T04:01:09.436Z,94340.00
2023-03-23T04:05:09.511Z,94348.00
2023-03-23T04:09:09.394Z,94348.00
2023-03-23T04:13:09.596Z,94350.00
2023-03-23T04:17:09.325Z,94358.00
2023-03-23T04:21:09.355Z,94370.00
2023-03-23T04:25:09.206Z,94366.00
2023-03-23T04:29:09.188Z,94366.00
2023-03-23T04:33:09.213Z,94374.00
2023-03-23T04:37:09.120Z,94372.00
2023-03-23T04:41:09.094Z,94374.00
2023-03-23T04:45:09.130Z,94376.00
2023-03-23T04:49:09.169Z,94378.00
2023-03-23T04:53:09.217Z,94372.00
2023-03-23T04:57:09.295Z,94370.00
2023-03-23T05:01:09.378Z,94378.00
2023-03-23T05:05:09.526Z,94374.00
2023-03-23T05:09:09.526Z,94381.00
2023-03-23T05:13:09.590Z,94379.00
2023-03-23T05:17:09.559Z,94376.00
2023-03-23T05:21:09.639Z,94379.00
2023-03-23T05:25:09.697Z,94383.00
2023-03-23T05:29:09.781Z,94393.00
2023-03-23T05:33:09.825Z,94403.00
2023-03-23T05:37:11.321Z,94403.00
2023-03-23T05:41:09.904Z,94409.00
2023-03-23T05:45:10.027Z,94413.00
2023-03-23T05:49:10.134Z,94409.00
2023-03-23T05:53:11.336Z,94411.00
2023-03-23T05:57:10.183Z,94411.00
2023-03-23T06:01:10.261Z,94405.00
2023-03-23T06:05:11.251Z,94405.00
2023-03-23T06:09:10.255Z,94409.00
2023-03-23T06:13:10.089Z,94409.00
2023-03-23T06:17:10.712Z,94419.00
2023-03-23T06:21:10.108Z,94417.00
2023-03-23T06:25:11.444Z,94415.00
2023-03-23T06:29:10.400Z,94411.00
2023-03-23T06:33:09.926Z,94413.00
2023-03-23T06:37:10.707Z,94411.00
2023-03-23T06:41:10.061Z,94405.00
2023-03-23T06:45:10.374Z,94389.00
2023-03-23T06:49:09.955Z,94389.00
2023-03-23T06:53:09.897Z,94383.00
2023-03-23T06:57:09.977Z,94391.00
2023-03-23T07:01:09.863Z,94405.00
2023-03-23T07:05:09.963Z,94411.00
2023-03-23T07:09:09.820Z,94411.00
2023-03-23T07:13:11.426Z,94405.00
2023-03-23T07:17:10.388Z,94403.00
2023-03-23T07:25:28.950Z,94385.00
2023-03-23T07:29:28.826Z,94381.00
2023-03-23T07:33:29.156Z,94383.00
2023-03-23T07:37:31.073Z,94385.00
2023-03-23T07:41:29.016Z,94387.00
2023-03-23T07:45:29.124Z,94389.00
2023-03-23T07:49:29.347Z,94403.00
2023-03-23T07:53:31.521Z,94403.00
2023-03-23T07:57:29.651Z,94401.00
2023-03-23T08:01:30.107Z,94409.00
2023-03-23T08:05:32.429Z,94415.00
2023-03-23T08:09:29.682Z,94411.00
2023-03-23T08:13:29.678Z,94415.00
2023-03-23T08:17:29.603Z,94409.00
2023-03-23T08:21:29.574Z,94413.00
2023-03-23T08:25:29.850Z,94421.00
2023-03-23T08:29:30.432Z,94421.00
2023-03-23T08:33:30.054Z,94428.00
2023-03-23T08:37:29.466Z,94428.00
2023-03-23T08:41:29.388Z,94426.00
2023-03-23T08:45:29.405Z,94426.00
2023-03-23T08:49:29.480Z,94423.00
2023-03-23T08:53:29.305Z,94413.00
2023-03-23T08:57:29.299Z,94415.00
2023-03-23T09:01:29.872Z,94409.00
2023-03-23T09:05:29.293Z,94405.00
2023-03-23T09:09:30.063Z,94409.00
2023-03-23T09:13:29.413Z,94411.00
2023-03-23T09:17:29.575Z,94424.00
2023-03-23T09:21:29.775Z,94430.00
2023-03-23T09:25:29.503Z,94419.00
2023-03-23T09:29:29.469Z,94417.00
2023-03-23T09:33:29.357Z,94415.00
2023-03-23T09:37:30.074Z,94413.00
2023-03-23T09:41:29.417Z,94411.00
2023-03-23T09:45:29.368Z,94389.00
2023-03-23T09:49:29.470Z,94379.00
2023-03-23T09:53:30.181Z,94378.00
2023-03-23T09:57:29.514Z,94378.00
2023-03-23T10:01:29.393Z,94372.00
2023-03-23T10:05:29.275Z,94358.00
2023-03-23T10:09:29.245Z,94352.00
2023-03-23T10:13:29.310Z,94342.00
2023-03-23T10:17:29.259Z,94338.00
2023-03-23T10:21:29.183Z,94334.00
2023-03-23T10:25:29.102Z,94329.00
2023-03-23T10:29:29.118Z,94323.00
2023-03-23T10:33:29.080Z,94315.00
2023-03-23T10:37:29.370Z,94307.00
2023-03-23T10:41:29.022Z,94292.00
2023-03-23T10:45:29.313Z,94297.00
2023-03-23T10:49:29.451Z,94297.00
2023-03-23T10:53:30.373Z,94293.00
2023-03-23T10:57:29.920Z,94287.00
2023-03-23T11:01:29.464Z,94290.00
2023-03-23T11:05:29.761Z,94295.00
2023-03-23T11:09:29.638Z,94290.00
2023-03-23T11:13:29.410Z,94292.00
2023-03-23T11:17:29.559Z,94301.00
2023-03-23T11:21:29.325Z,94307.00
2023-03-23T11:25:29.222Z,94301.00
2023-03-23T11:29:29.362Z,94303.00
2023-03-23T11:33:29.308Z,94295.00
2023-03-23T11:37:29.308Z,94290.00
2023-03-23T11:41:29.111Z,94287.00
2023-03-23T11:45:29.656Z,94287.00
2023-03-23T11:49:30.412Z,94284.00
2023-03-23T11:53:29.414Z,94268.00
2023-03-23T11:57:29.794Z,94260.00
2023-03-23T12:01:30.121Z,94252.00
2023-03-23T12:05:29.629Z,94246.00
2023-03-23T12:09:29.745Z,94242.00
2023-03-23T12:13:29.980Z,94246.00
2023-03-23T12:17:30.496Z,94242.00
2023-03-23T12:21:30.367Z,94237.00
2023-03-23T12:25:30.341Z,94229.00
2023-03-23T12:29:30.477Z,94221.00
2023-03-23T12:33:30.593Z,94207.00
2023-03-23T12:37:30.830Z,94201.00
2023-03-23T12:41:30.907Z,94193.00
2023-03-23T12:45:31.079Z,94186.00
2023-03-23T12:49:31.106Z,94180.00
2023-03-23T12:53:31.227Z,94178.00
2023-03-23T12:57:31.306Z,94178.00
2023-03-23T13:05:31.290Z,94158.00
2023-03-23T13:09:31.270Z,94135.00
2023-03-23T13:13:31.888Z,94129.00
2023-03-23T13:17:31.222Z,94131.00
2023-03-23T13:21:31.256Z,94127.00
2023-03-23T13:25:31.148Z,94111.00
2023-03-23T13:29:31.095Z,94106.00
2023-03-23T13:33:31.216Z,94104.00
2023-03-23T13:37:31.173Z,94101.00
2023-03-23T13:41:31.240Z,94101.00
2023-03-23T13:45:30.920Z,94096.00
2023-03-23T13:49:30.879Z,94092.00
2023-03-23T13:53:30.901Z,94090.00
2023-03-23T13:57:30.838Z,94084.00
2023-03-23T14:01:30.765Z,94074.00
2023-03-23T14:05:30.744Z,94076.00
2023-03-23T14:09:30.775Z,94072.00
2023-03-23T14:13:30.884Z,94068.00
2023-03-23T14:17:31.059Z,94058.00
2023-03-23T14:21:31.192Z,94054.00
2023-03-23T14:25:31.349Z,94054.00
2023-03-23T14:29:31.587Z,94056.00
2023-03-23T14:33:31.766Z,94054.00
2023-03-23T14:37:31.849Z,94056.00
2023-03-23T14:41:31.653Z,94058.00
2023-03-23T14:45:31.626Z,94054.00
2023-03-23T14:49:31.595Z,94051.00
2023-03-23T14:53:31.635Z,94045.00
2023-03-23T14:57:31.742Z,94043.00
2023-03-23T15:01:31.479Z,94043.00
2023-03-23T15:05:31.483Z,94037.00
2023-03-23T15:09:31.746Z,94035.00
2023-03-23T15:13:31.567Z,94043.00
2023-03-23T15:17:31.806Z,94049.00
2023-03-23T15:21:31.433Z,94043.00
2023-03-23T15:25:31.372Z,94039.00
2023-03-23T15:29:31.317Z,94037.00
2023-03-23T15:33:31.293Z,94043.00
2023-03-23T15:37:31.261Z,94041.00
2023-03-23T15:41:31.232Z,94039.00
2023-03-23T15:45:31.181Z,94039.00
2023-03-23T15:49:31.420Z,94043.00
2023-03-23T15:53:32.081Z,94045.00
2023-03-23T15:57:31.088Z,94045.00
2023-03-23T16:01:31.204Z,94045.00
2023-03-23T16:05:31.147Z,94052.00
2023-03-23T16:09:31.116Z,94056.00
2023-03-23T16:13:31.147Z,94064.00
2023-03-23T16:17:31.143Z,94066.00
2023-03-23T16:21:31.066Z,94070.00
2023-03-23T16:25:31.374Z,94070.00
2023-03-23T16:33:31.160Z,94076.00
2023-03-23T16:37:30.954Z,94080.00
2023-03-23T16:41:30.962Z,94086.00
2023-03-23T16:45:30.929Z,94084.00
2023-03-23T16:49:30.891Z,94082.00
2023-03-23T16:53:30.834Z,94080.00
2023-03-23T16:57:30.777Z,94078.00
2023-03-23T17:01:30.839Z,94078.00
2023-03-23T17:05:30.717Z,94080.00
2023-03-23T17:09:30.735Z,94086.00
2023-03-23T17:13:30.640Z,94086.00
2023-03-23T17:17:30.667Z,94088.00
2023-03-23T17:21:30.567Z,94088.00
2023-03-23T17:25:30.599Z,94094.00
2023-03-23T17:29:30.580Z,94096.00
2023-03-23T17:33:30.554Z,94096.00
2023-03-23T17:37:30.453Z,94096.00
2023-03-23T17:41:30.390Z,94109.00
2023-03-23T17:45:30.434Z,94123.00
2023-03-23T17:49:30.384Z,94131.00
2023-03-23T17:53:30.771Z,94144.00
2023-03-23T17:57:30.280Z,94148.00
2023-03-23T18:01:30.281Z,94152.00
2023-03-23T18:05:30.156Z,94166.00
2023-03-23T18:09:30.152Z,94168.00
2023-03-23T18:13:30.104Z,94164.00
2023-03-23T18:17:30.365Z,94168.00
2023-03-23T18:21:30.228Z,94168.00
2023-03-23T18:25:30.076Z,94170.00
2023-03-23T18:29:30.101Z,94174.00
2023-03-23T18:33:30.133Z,94178.00
2023-03-23T18:37:30.150Z,94184.00
2023-03-23T18:41:30.198Z,94188.00
2023-03-23T18:45:30.236Z,94190.00
2023-03-23T18:49:30.348Z,94188.00
2023-03-23T18:53:30.369Z,94195.00
2023-03-23T18:57:30.370Z,94207.00
2023-03-23T19:01:30.502Z,94211.00
2023-03-23T19:05:30.532Z,94211.00
2023-03-23T19:09:30.521Z,94215.00
2023-03-23T19:13:30.678Z,94217.00
2023-03-23T19:17:30.680Z,94219.00
2023-03-23T19:21:31.763Z,94221.00
2023-03-23T19:25:30.625Z,94227.00
2023-03-23T19:29:31.346Z,94231.00
2023-03-23T19:33:30.751Z,94237.00
2023-03-23T19:37:34.576Z,94235.00
2023-03-23T19:41:30.692Z,94238.00
2023-03-23T19:45:30.661Z,94240.00
2023-03-23T19:49:30.693Z,94240.00
2023-03-23T19:53:31.416Z,94238.00
2023-03-23T19:57:30.570Z,94244.00
2023-03-23T20:01:31.336Z,94248.00
2023-03-23T20:05:30.828Z,94248.00
2023-03-23T20:13:30.503Z,94258.00
2023-03-23T20:17:30.671Z,94260.00
2023-03-23T20:21:30.341Z,94256.00
2023-03-23T20:25:30.942Z,94260.00
2023-03-23T20:29:31.629Z,94262.00
2023-03-23T20:33:30.856Z,94262.00
2023-03-23T20:37:32.400Z,94270.00
2023-03-23T20:41:30.810Z,94274.00
2023-03-23T20:45:30.776Z,94272.00
2023-03-23T20:49:30.918Z,94268.00
2023-03-23T20:53:30.933Z,94256.00
2023-03-23T20:57:31.099Z,94256.00
2023-03-23T21:01:31.425Z,94260.00
2023-03-23T21:05:31.934Z,94264.00
2023-03-23T21:09:31.293Z,94268.00
2023-03-23T21:13:31.384Z,94264.00
2023-03-23T21:17:31.478Z,94256.00
2023-03-23T21:21:31.546Z,94252.00
2023-03-23T21:25:33.968Z,94254.00
2023-03-23T21:29:31.877Z,94250.00
2023-03-23T21:33:31.486Z,94254.00
2023-03-23T21:37:32.354Z,94256.00
2023-03-23T21:41:42.605Z,94248.00
2023-03-23T21:45:33.722Z,94252.00
2023-03-23T21:49:31.354Z,94260.00
2023-03-23T21:53:31.610Z,94264.00
2023-03-23T21:57:31.184Z,94258.00
2023-03-23T22:01:31.489Z,94262.00
2023-03-23T22:05:31.133Z,94268.00
2023-03-23T22:09:31.105Z,94272.00
2023-03-23T22:13:31.088Z,94270.00
2023-03-23T22:17:31.050Z,94272.00
2023-03-23T22:21:31.011Z,94266.00
2023-03-23T22:25:30.912Z,94268.00
2023-03-23T22:29:30.921Z,94268.00
2023-03-23T22:33:30.852Z,94262.00
2023-03-23T22:37:30.939Z,94258.00
2023-03-23T22:41:30.807Z,94264.00
2023-03-23T22:45:31.067Z,94254.00
2023-03-23T22:49:31.058Z,94252.00
2023-03-23T22:53:31.300Z,94250.00
2023-03-23T22:57:31.473Z,94250.00
2023-03-23T23:01:31.728Z,94242.00
2023-03-23T23:05:31.666Z,94248.00
2023-03-23T23:09:31.932Z,94244.00
2023-03-23T23:13:33.293Z,94238.00
2023-03-23T23:17:32.258Z,94240.00
2023-03-23T23:21:32.356Z,94244.00
2023-03-23T23:25:33.477Z,94238.00
2023-03-23T23:29:32.722Z,94237.00
2023-03-23T23:33:33.474Z,94237.00
2023-03-23T23:37:32.893Z,94233.00
2023-03-23T23:41:33.112Z,94231.00
2023-03-23T23:45:33.303Z,94231.00
2023-03-23T23:49:33.397Z,94225.00
2023-03-23T23:53:33.659Z,94219.00
2023-03-23T23:57:33.737Z,94221.00
